sensor_id;sensor_type;location;lat;lon;timestamp;temperature;humidity
1417;DHT22;703;51.162;13.574;2023-05-20T00:00:35;12.40;99.90
1417;DHT22;703;51.162;13.574;2023-05-20T00:03:01;12.40;99.90
1417;DHT22;703;51.162;13.574;2023-05-20T00:05:26;12.30;99.90
1417;DHT22;703;51.162;13.574;2023-05-20T00:07:52;12.40;99.90
1417;DHT22;703;51.162;13.574;2023-05-20T00:10:17;12.20;99.90
1417;DHT22;703;51.162;13.574;2023-05-20T00:12:42;12.20;99.90
1417;DHT22;703;51.162;13.574;2023-05-20T00:15:08;12.20;99.90
1417;DHT22;703;51.162;13.574;2023-05-20T00:17:36;12.20;99.90
1417;DHT22;703;51.162;13.574;2023-05-20T00:20:01;12.30;99.90
1417;DHT22;703;51.162;13.574;2023-05-20T00:22:27;12.30;99.90
1417;DHT22;703;51.162;13.574;2023-05-20T00:24:53;12.20;99.90
1417;DHT22;703;51.162;13.574;2023-05-20T00:27:18;12.20;99.90
1417;DHT22;703;51.162;13.574;2023-05-20T00:29:44;12.20;99.90
1417;DHT22;703;51.162;13.574;2023-05-20T00:32:12;12.20;99.90
1417;DHT22;703;51.162;13.574;2023-05-20T00:34:38;13.20;99.90
1417;DHT22;703;51.162;13.574;2023-05-20T00:37:04;12.10;99.90
1417;DHT22;703;51.162;13.574;2023-05-20T00:39:29;12.10;99.90
1417;DHT22;703;51.162;13.574;2023-05-20T00:41:54;12.10;99.90
1417;DHT22;703;51.162;13.574;2023-05-20T00:44:25;12.00;99.90
1417;DHT22;703;51.162;13.574;2023-05-20T00:46:51;12.00;99.90
1417;DHT22;703;51.162;13.574;2023-05-20T00:49:16;12.00;99.90
1417;DHT22;703;51.162;13.574;2023-05-20T00:51:42;12.00;99.90
1417;DHT22;703;51.162;13.574;2023-05-20T00:54:07;12.00;99.90
1417;DHT22;703;51.162;13.574;2023-05-20T00:56:33;11.90;99.90
1417;DHT22;703;51.162;13.574;2023-05-20T00:58:59;11.90;99.90
1417;DHT22;703;51.162;13.574;2023-05-20T01:01:24;11.80;99.90
1417;DHT22;703;51.162;13.574;2023-05-20T01:03:50;11.80;99.90
1417;DHT22;703;51.162;13.574;2023-05-20T01:06:16;11.80;99.90
1417;DHT22;703;51.162;13.574;2023-05-20T01:08:41;11.80;99.90
1417;DHT22;703;51.162;13.574;2023-05-20T01:11:13;11.80;99.90
1417;DHT22;703;51.162;13.574;2023-05-20T01:13:42;11.80;99.90
1417;DHT22;703;51.162;13.574;2023-05-20T01:16:09;11.80;99.90
1417;DHT22;703;51.162;13.574;2023-05-20T01:18:35;11.80;99.90
1417;DHT22;703;51.162;13.574;2023-05-20T01:21:02;11.80;99.90
1417;DHT22;703;51.162;13.574;2023-05-20T01:23:32;11.70;99.90
1417;DHT22;703;51.162;13.574;2023-05-20T01:25:57;11.70;99.90
1417;DHT22;703;51.162;13.574;2023-05-20T01:28:22;11.80;99.90
1417;DHT22;703;51.162;13.574;2023-05-20T01:30:49;11.70;99.90
1417;DHT22;703;51.162;13.574;2023-05-20T01:33:16;11.70;99.90
1417;DHT22;703;51.162;13.574;2023-05-20T01:35:44;11.70;99.90
1417;DHT22;703;51.162;13.574;2023-05-20T01:38:10;11.60;99.90
1417;DHT22;703;51.162;13.574;2023-05-20T01:40:36;11.60;99.90
1417;DHT22;703;51.162;13.574;2023-05-20T01:43:02;11.60;99.90
1417;DHT22;703;51.162;13.574;2023-05-20T01:45:28;11.50;99.90
1417;DHT22;703;51.162;13.574;2023-05-20T01:47:55;11.50;99.90
1417;DHT22;703;51.162;13.574;2023-05-20T01:50:20;11.50;99.90
1417;DHT22;703;51.162;13.574;2023-05-20T01:52:46;11.50;99.90
1417;DHT22;703;51.162;13.574;2023-05-20T01:55:11;11.40;99.90
1417;DHT22;703;51.162;13.574;2023-05-20T01:57:37;11.30;99.90
1417;DHT22;703;51.162;13.574;2023-05-20T02:00:02;11.30;99.90
1417;DHT22;703;51.162;13.574;2023-05-20T02:02:28;11.30;99.90
1417;DHT22;703;51.162;13.574;2023-05-20T02:04:53;11.30;99.90
1417;DHT22;703;51.162;13.574;2023-05-20T02:07:19;11.40;99.90
1417;DHT22;703;51.162;13.574;2023-05-20T02:09:45;11.40;99.90
1417;DHT22;703;51.162;13.574;2023-05-20T02:12:10;11.40;99.90
1417;DHT22;703;51.162;13.574;2023-05-20T02:14:45;11.40;99.90
1417;DHT22;703;51.162;13.574;2023-05-20T02:17:11;11.30;99.90
1417;DHT22;703;51.162;13.574;2023-05-20T02:19:40;11.40;99.90
1417;DHT22;703;51.162;13.574;2023-05-20T02:22:06;11.40;99.90
1417;DHT22;703;51.162;13.574;2023-05-20T02:24:31;11.40;99.90
1417;DHT22;703;51.162;13.574;2023-05-20T02:26:57;11.40;99.90
1417;DHT22;703;51.162;13.574;2023-05-20T02:29:23;11.30;99.90
1417;DHT22;703;51.162;13.574;2023-05-20T02:31:49;11.30;99.90
1417;DHT22;703;51.162;13.574;2023-05-20T02:34:16;11.40;99.90
1417;DHT22;703;51.162;13.574;2023-05-20T02:36:41;11.40;99.90
1417;DHT22;703;51.162;13.574;2023-05-20T02:39:07;11.40;99.90
1417;DHT22;703;51.162;13.574;2023-05-20T02:41:33;11.30;99.90
1417;DHT22;703;51.162;13.574;2023-05-20T02:43:58;11.30;99.90
1417;DHT22;703;51.162;13.574;2023-05-20T02:46:24;11.20;99.90
1417;DHT22;703;51.162;13.574;2023-05-20T02:48:49;11.30;99.90
1417;DHT22;703;51.162;13.574;2023-05-20T02:51:15;11.30;99.90
1417;DHT22;703;51.162;13.574;2023-05-20T02:53:40;11.40;99.90
1417;DHT22;703;51.162;13.574;2023-05-20T02:56:06;11.40;99.90
1417;DHT22;703;51.162;13.574;2023-05-20T02:58:32;11.30;99.90
1417;DHT22;703;51.162;13.574;2023-05-20T03:00:57;11.30;99.90
1417;DHT22;703;51.162;13.574;2023-05-20T03:03:24;11.20;99.90
1417;DHT22;703;51.162;13.574;2023-05-20T03:05:51;11.20;99.90
1417;DHT22;703;51.162;13.574;2023-05-20T03:08:17;11.20;99.90
1417;DHT22;703;51.162;13.574;2023-05-20T03:10:43;11.20;99.90
1417;DHT22;703;51.162;13.574;2023-05-20T03:13:08;11.20;99.90
1417;DHT22;703;51.162;13.574;2023-05-20T03:15:38;11.20;99.90
1417;DHT22;703;51.162;13.574;2023-05-20T03:18:04;11.10;99.90
1417;DHT22;703;51.162;13.574;2023-05-20T03:20:30;8.80;99.90
1417;DHT22;703;51.162;13.574;2023-05-20T03:22:57;11.10;99.90
1417;DHT22;703;51.162;13.574;2023-05-20T03:25:23;11.10;99.90
1417;DHT22;703;51.162;13.574;2023-05-20T03:27:48;11.10;99.90
1417;DHT22;703;51.162;13.574;2023-05-20T03:30:14;11.10;99.90
1417;DHT22;703;51.162;13.574;2023-05-20T03:32:39;11.10;99.90
1417;DHT22;703;51.162;13.574;2023-05-20T03:35:05;11.10;99.90
1417;DHT22;703;51.162;13.574;2023-05-20T03:37:30;11.20;99.90
1417;DHT22;703;51.162;13.574;2023-05-20T03:39:56;11.20;99.90
1417;DHT22;703;51.162;13.574;2023-05-20T03:42:21;11.20;99.90
1417;DHT22;703;51.162;13.574;2023-05-20T03:44:47;11.20;99.90
1417;DHT22;703;51.162;13.574;2023-05-20T03:47:12;11.20;99.90
1417;DHT22;703;51.162;13.574;2023-05-20T03:49:38;11.20;99.90
1417;DHT22;703;51.162;13.574;2023-05-20T03:52:05;11.20;99.90
1417;DHT22;703;51.162;13.574;2023-05-20T03:54:31;11.30;99.90
1417;DHT22;703;51.162;13.574;2023-05-20T03:56:56;11.30;99.90
1417;DHT22;703;51.162;13.574;2023-05-20T03:59:22;11.30;99.90
1417;DHT22;703;51.162;13.574;2023-05-20T04:01:47;11.30;99.90
1417;DHT22;703;51.162;13.574;2023-05-20T04:04:13;11.40;99.90
1417;DHT22;703;51.162;13.574;2023-05-20T04:06:38;11.40;99.90
1417;DHT22;703;51.162;13.574;2023-05-20T04:09:04;11.40;99.90
1417;DHT22;703;51.162;13.574;2023-05-20T04:11:30;11.40;99.90
1417;DHT22;703;51.162;13.574;2023-05-20T04:13:55;11.40;99.90
1417;DHT22;703;51.162;13.574;2023-05-20T04:16:22;11.40;99.90
1417;DHT22;703;51.162;13.574;2023-05-20T04:18:49;11.50;99.90
1417;DHT22;703;51.162;13.574;2023-05-20T04:21:16;11.50;99.90
1417;DHT22;703;51.162;13.574;2023-05-20T04:23:43;11.50;99.90
1417;DHT22;703;51.162;13.574;2023-05-20T04:26:09;11.60;99.90
1417;DHT22;703;51.162;13.574;2023-05-20T04:28:34;11.60;99.90
1417;DHT22;703;51.162;13.574;2023-05-20T04:31:02;11.60;99.90
1417;DHT22;703;51.162;13.574;2023-05-20T04:33:29;11.70;99.90
1417;DHT22;703;51.162;13.574;2023-05-20T04:35:54;11.70;99.90
1417;DHT22;703;51.162;13.574;2023-05-20T04:38:25;11.70;99.90
1417;DHT22;703;51.162;13.574;2023-05-20T04:40:57;11.70;99.90
1417;DHT22;703;51.162;13.574;2023-05-20T04:43:23;11.80;99.90
1417;DHT22;703;51.162;13.574;2023-05-20T04:45:50;11.80;99.90
1417;DHT22;703;51.162;13.574;2023-05-20T04:48:18;11.80;99.90
1417;DHT22;703;51.162;13.574;2023-05-20T04:50:48;11.90;99.90
1417;DHT22;703;51.162;13.574;2023-05-20T04:53:14;12.50;99.90
1417;DHT22;703;51.162;13.574;2023-05-20T04:55:40;11.90;99.90
1417;DHT22;703;51.162;13.574;2023-05-20T04:58:07;11.90;99.90
1417;DHT22;703;51.162;13.574;2023-05-20T05:00:39;12.00;99.90
1417;DHT22;703;51.162;13.574;2023-05-20T05:03:05;12.00;99.90
1417;DHT22;703;51.162;13.574;2023-05-20T05:05:34;12.10;99.90
1417;DHT22;703;51.162;13.574;2023-05-20T05:08:04;12.10;99.90
1417;DHT22;703;51.162;13.574;2023-05-20T05:10:33;12.10;99.90
1417;DHT22;703;51.162;13.574;2023-05-20T05:12:58;12.20;99.90
1417;DHT22;703;51.162;13.574;2023-05-20T05:15:24;12.20;99.90
1417;DHT22;703;51.162;13.574;2023-05-20T05:17:50;12.30;99.90
1417;DHT22;703;51.162;13.574;2023-05-20T05:20:15;12.30;99.90
1417;DHT22;703;51.162;13.574;2023-05-20T05:22:45;12.30;99.90
1417;DHT22;703;51.162;13.574;2023-05-20T05:25:11;12.40;99.90
1417;DHT22;703;51.162;13.574;2023-05-20T05:27:39;12.40;99.90
1417;DHT22;703;51.162;13.574;2023-05-20T05:30:05;12.40;99.90
1417;DHT22;703;51.162;13.574;2023-05-20T05:32:31;12.40;99.90
1417;DHT22;703;51.162;13.574;2023-05-20T05:34:57;12.50;99.90
1417;DHT22;703;51.162;13.574;2023-05-20T05:37:22;12.50;99.90
1417;DHT22;703;51.162;13.574;2023-05-20T05:39:48;12.50;99.90
1417;DHT22;703;51.162;13.574;2023-05-20T05:42:14;12.50;99.90
1417;DHT22;703;51.162;13.574;2023-05-20T05:44:40;12.50;99.90
1417;DHT22;703;51.162;13.574;2023-05-20T05:47:06;12.50;99.90
1417;DHT22;703;51.162;13.574;2023-05-20T05:49:32;12.60;99.90
1417;DHT22;703;51.162;13.574;2023-05-20T05:51:58;12.60;99.90
1417;DHT22;703;51.162;13.574;2023-05-20T05:54:23;12.60;99.90
1417;DHT22;703;51.162;13.574;2023-05-20T05:56:53;12.70;99.90
1417;DHT22;703;51.162;13.574;2023-05-20T05:59:21;12.70;99.90
1417;DHT22;703;51.162;13.574;2023-05-20T06:01:47;12.80;99.90
1417;DHT22;703;51.162;13.574;2023-05-20T06:04:13;12.80;99.90
1417;DHT22;703;51.162;13.574;2023-05-20T06:06:39;12.80;99.90
1417;DHT22;703;51.162;13.574;2023-05-20T06:09:05;12.80;99.90
1417;DHT22;703;51.162;13.574;2023-05-20T06:11:32;12.90;99.90
1417;DHT22;703;51.162;13.574;2023-05-20T06:13:58;12.80;99.90
1417;DHT22;703;51.162;13.574;2023-05-20T06:16:24;12.90;99.90
1417;DHT22;703;51.162;13.574;2023-05-20T06:18:50;13.00;99.90
1417;DHT22;703;51.162;13.574;2023-05-20T06:21:15;12.90;99.90
1417;DHT22;703;51.162;13.574;2023-05-20T06:23:41;12.90;99.90
1417;DHT22;703;51.162;13.574;2023-05-20T06:26:06;12.90;99.90
1417;DHT22;703;51.162;13.574;2023-05-20T06:28:32;12.90;99.90
1417;DHT22;703;51.162;13.574;2023-05-20T06:30:57;12.90;99.90
1417;DHT22;703;51.162;13.574;2023-05-20T06:33:23;13.00;99.90
1417;DHT22;703;51.162;13.574;2023-05-20T06:35:53;13.10;99.90
1417;DHT22;703;51.162;13.574;2023-05-20T06:38:19;13.10;99.90
1417;DHT22;703;51.162;13.574;2023-05-20T06:40:45;13.30;99.90
1417;DHT22;703;51.162;13.574;2023-05-20T06:43:11;13.50;99.90
1417;DHT22;703;51.162;13.574;2023-05-20T06:45:37;13.60;99.90
1417;DHT22;703;51.162;13.574;2023-05-20T06:48:02;13.60;99.90
1417;DHT22;703;51.162;13.574;2023-05-20T06:50:28;13.60;99.90
1417;DHT22;703;51.162;13.574;2023-05-20T06:52:53;13.60;99.90
1417;DHT22;703;51.162;13.574;2023-05-20T06:55:21;13.60;99.90
1417;DHT22;703;51.162;13.574;2023-05-20T06:57:51;13.70;99.90
1417;DHT22;703;51.162;13.574;2023-05-20T07:00:17;13.60;99.90
1417;DHT22;703;51.162;13.574;2023-05-20T07:02:42;13.60;99.90
1417;DHT22;703;51.162;13.574;2023-05-20T07:05:09;13.90;99.90
1417;DHT22;703;51.162;13.574;2023-05-20T07:07:39;13.90;99.90
1417;DHT22;703;51.162;13.574;2023-05-20T07:10:05;14.20;99.90
1417;DHT22;703;51.162;13.574;2023-05-20T07:12:34;14.20;99.90
1417;DHT22;703;51.162;13.574;2023-05-20T07:14:59;14.10;99.90
1417;DHT22;703;51.162;13.574;2023-05-20T07:17:25;14.20;99.90
1417;DHT22;703;51.162;13.574;2023-05-20T07:19:52;14.40;99.90
1417;DHT22;703;51.162;13.574;2023-05-20T07:22:17;14.40;99.90
1417;DHT22;703;51.162;13.574;2023-05-20T07:24:42;14.60;99.90
1417;DHT22;703;51.162;13.574;2023-05-20T07:27:08;14.60;99.90
1417;DHT22;703;51.162;13.574;2023-05-20T07:29:37;14.40;99.90
1417;DHT22;703;51.162;13.574;2023-05-20T07:32:02;14.50;99.90
1417;DHT22;703;51.162;13.574;2023-05-20T07:34:28;14.60;99.90
1417;DHT22;703;51.162;13.574;2023-05-20T07:36:53;14.50;99.90
1417;DHT22;703;51.162;13.574;2023-05-20T07:39:19;14.30;99.90
1417;DHT22;703;51.162;13.574;2023-05-20T07:41:45;14.50;99.90
1417;DHT22;703;51.162;13.574;2023-05-20T07:44:11;14.60;99.90
1417;DHT22;703;51.162;13.574;2023-05-20T07:46:37;14.50;99.90
1417;DHT22;703;51.162;13.574;2023-05-20T07:49:03;14.70;99.90
1417;DHT22;703;51.162;13.574;2023-05-20T07:51:29;14.80;99.90
1417;DHT22;703;51.162;13.574;2023-05-20T07:53:55;14.80;99.90
1417;DHT22;703;51.162;13.574;2023-05-20T07:56:20;14.80;99.90
1417;DHT22;703;51.162;13.574;2023-05-20T07:58:52;15.20;99.90
1417;DHT22;703;51.162;13.574;2023-05-20T08:01:18;15.40;99.90
1417;DHT22;703;51.162;13.574;2023-05-20T08:03:44;15.30;99.90
1417;DHT22;703;51.162;13.574;2023-05-20T08:06:09;15.20;99.90
1417;DHT22;703;51.162;13.574;2023-05-20T08:08:35;15.00;99.90
1417;DHT22;703;51.162;13.574;2023-05-20T08:11:00;14.90;99.90
1417;DHT22;703;51.162;13.574;2023-05-20T08:13:26;14.90;99.90
1417;DHT22;703;51.162;13.574;2023-05-20T08:15:52;15.20;99.90
1417;DHT22;703;51.162;13.574;2023-05-20T08:18:18;15.50;99.90
1417;DHT22;703;51.162;13.574;2023-05-20T08:20:44;15.60;99.90
1417;DHT22;703;51.162;13.574;2023-05-20T08:23:10;15.70;99.90
1417;DHT22;703;51.162;13.574;2023-05-20T08:25:35;15.50;99.90
1417;DHT22;703;51.162;13.574;2023-05-20T08:28:02;15.40;99.90
1417;DHT22;703;51.162;13.574;2023-05-20T08:30:29;15.50;99.90
1417;DHT22;703;51.162;13.574;2023-05-20T08:32:55;13.80;99.90
1417;DHT22;703;51.162;13.574;2023-05-20T08:35:22;16.30;99.90
1417;DHT22;703;51.162;13.574;2023-05-20T08:37:47;16.70;99.90
1417;DHT22;703;51.162;13.574;2023-05-20T08:40:13;16.70;99.90
1417;DHT22;703;51.162;13.574;2023-05-20T08:42:42;16.60;99.90
1417;DHT22;703;51.162;13.574;2023-05-20T08:45:09;16.50;99.90
1417;DHT22;703;51.162;13.574;2023-05-20T08:47:36;16.80;99.90
1417;DHT22;703;51.162;13.574;2023-05-20T08:50:03;16.60;99.90
1417;DHT22;703;51.162;13.574;2023-05-20T08:52:28;16.60;99.90
1417;DHT22;703;51.162;13.574;2023-05-20T08:54:55;16.50;99.90
1417;DHT22;703;51.162;13.574;2023-05-20T08:57:22;16.50;99.90
1417;DHT22;703;51.162;13.574;2023-05-20T08:59:47;16.50;99.90
1417;DHT22;703;51.162;13.574;2023-05-20T09:02:13;16.50;99.90
1417;DHT22;703;51.162;13.574;2023-05-20T09:04:39;16.50;99.90
1417;DHT22;703;51.162;13.574;2023-05-20T09:07:05;16.40;99.90
1417;DHT22;703;51.162;13.574;2023-05-20T09:09:31;17.00;99.90
1417;DHT22;703;51.162;13.574;2023-05-20T09:11:58;17.50;99.90
1417;DHT22;703;51.162;13.574;2023-05-20T09:14:23;17.80;99.90
1417;DHT22;703;51.162;13.574;2023-05-20T09:16:51;18.00;99.90
1417;DHT22;703;51.162;13.574;2023-05-20T09:19:17;17.40;99.90
1417;DHT22;703;51.162;13.574;2023-05-20T09:21:45;17.30;99.90
1417;DHT22;703;51.162;13.574;2023-05-20T09:24:11;17.50;99.90
1417;DHT22;703;51.162;13.574;2023-05-20T09:26:37;18.10;99.90
1417;DHT22;703;51.162;13.574;2023-05-20T09:29:02;17.80;99.90
1417;DHT22;703;51.162;13.574;2023-05-20T09:31:31;18.10;99.90
1417;DHT22;703;51.162;13.574;2023-05-20T09:34:00;18.60;99.90
1417;DHT22;703;51.162;13.574;2023-05-20T09:36:27;18.70;99.90
1417;DHT22;703;51.162;13.574;2023-05-20T09:38:53;18.90;99.90
1417;DHT22;703;51.162;13.574;2023-05-20T09:41:23;19.10;99.90
1417;DHT22;703;51.162;13.574;2023-05-20T09:43:53;19.20;99.90
1417;DHT22;703;51.162;13.574;2023-05-20T09:46:18;18.90;99.90
1417;DHT22;703;51.162;13.574;2023-05-20T09:48:45;19.10;99.90
1417;DHT22;703;51.162;13.574;2023-05-20T09:51:11;18.50;99.90
1417;DHT22;703;51.162;13.574;2023-05-20T09:53:37;19.00;99.90
1417;DHT22;703;51.162;13.574;2023-05-20T09:56:03;19.30;99.90
1417;DHT22;703;51.162;13.574;2023-05-20T09:58:28;18.80;99.90
1417;DHT22;703;51.162;13.574;2023-05-20T10:00:54;19.10;99.90
1417;DHT22;703;51.162;13.574;2023-05-20T10:03:20;19.30;99.90
1417;DHT22;703;51.162;13.574;2023-05-20T10:05:59;19.00;99.90
1417;DHT22;703;51.162;13.574;2023-05-20T10:11:18;19.30;99.90
1417;DHT22;703;51.162;13.574;2023-05-20T10:19:04;19.00;99.90
1417;DHT22;703;51.162;13.574;2023-05-20T10:21:32;19.10;99.90
1417;DHT22;703;51.162;13.574;2023-05-20T10:24:07;19.60;99.90
1417;DHT22;703;51.162;13.574;2023-05-20T10:26:37;20.40;99.90
1417;DHT22;703;51.162;13.574;2023-05-20T10:29:18;20.40;99.90
1417;DHT22;703;51.162;13.574;2023-05-20T10:31:47;20.50;99.90
1417;DHT22;703;51.162;13.574;2023-05-20T10:34:17;20.40;99.90
1417;DHT22;703;51.162;13.574;2023-05-20T10:39:18;20.30;99.90
1417;DHT22;703;51.162;13.574;2023-05-20T10:41:43;22.80;99.90
1417;DHT22;703;51.162;13.574;2023-05-20T10:44:09;20.40;99.90
1417;DHT22;703;51.162;13.574;2023-05-20T10:46:34;20.70;99.90
1417;DHT22;703;51.162;13.574;2023-05-20T10:49:03;20.90;99.90
1417;DHT22;703;51.162;13.574;2023-05-20T10:51:29;21.00;99.90
1417;DHT22;703;51.162;13.574;2023-05-20T10:53:56;21.00;99.90
1417;DHT22;703;51.162;13.574;2023-05-20T10:56:23;20.70;99.90
1417;DHT22;703;51.162;13.574;2023-05-20T10:58:49;20.40;99.90
1417;DHT22;703;51.162;13.574;2023-05-20T11:01:16;20.30;99.90
1417;DHT22;703;51.162;13.574;2023-05-20T11:03:46;20.70;99.90
1417;DHT22;703;51.162;13.574;2023-05-20T11:06:13;21.10;99.90
1417;DHT22;703;51.162;13.574;2023-05-20T11:08:39;20.30;99.90
1417;DHT22;703;51.162;13.574;2023-05-20T11:11:05;20.30;99.90
1417;DHT22;703;51.162;13.574;2023-05-20T11:13:31;21.00;99.90
1417;DHT22;703;51.162;13.574;2023-05-20T11:15:56;20.80;99.90
1417;DHT22;703;51.162;13.574;2023-05-20T11:18:25;21.40;99.90
1417;DHT22;703;51.162;13.574;2023-05-20T11:20:54;21.00;99.90
1417;DHT22;703;51.162;13.574;2023-05-20T11:23:20;21.10;99.90
1417;DHT22;703;51.162;13.574;2023-05-20T11:25:49;21.70;99.90
1417;DHT22;703;51.162;13.574;2023-05-20T11:28:14;22.40;99.90
1417;DHT22;703;51.162;13.574;2023-05-20T11:30:43;22.00;99.90
1417;DHT22;703;51.162;13.574;2023-05-20T11:33:13;22.00;99.90
1417;DHT22;703;51.162;13.574;2023-05-20T11:35:45;22.00;99.90
1417;DHT22;703;51.162;13.574;2023-05-20T11:38:11;22.10;99.90
1417;DHT22;703;51.162;13.574;2023-05-20T11:40:37;22.70;99.90
1417;DHT22;703;51.162;13.574;2023-05-20T11:43:07;22.40;99.90
1417;DHT22;703;51.162;13.574;2023-05-20T11:45:41;22.40;99.90
1417;DHT22;703;51.162;13.574;2023-05-20T11:48:07;22.60;99.90
1417;DHT22;703;51.162;13.574;2023-05-20T11:50:34;22.60;99.90
1417;DHT22;703;51.162;13.574;2023-05-20T11:53:04;22.70;99.90
1417;DHT22;703;51.162;13.574;2023-05-20T11:55:30;22.70;99.90
1417;DHT22;703;51.162;13.574;2023-05-20T11:57:56;22.80;99.90
1417;DHT22;703;51.162;13.574;2023-05-20T12:00:22;22.50;99.90
1417;DHT22;703;51.162;13.574;2023-05-20T12:02:48;22.50;99.90
1417;DHT22;703;51.162;13.574;2023-05-20T12:05:13;22.30;99.90
1417;DHT22;703;51.162;13.574;2023-05-20T12:07:39;22.00;99.90
1417;DHT22;703;51.162;13.574;2023-05-20T12:10:05;22.70;99.90
1417;DHT22;703;51.162;13.574;2023-05-20T12:12:31;22.60;99.90
1417;DHT22;703;51.162;13.574;2023-05-20T12:14:56;22.50;99.90
1417;DHT22;703;51.162;13.574;2023-05-20T12:17:22;23.20;99.90
1417;DHT22;703;51.162;13.574;2023-05-20T12:19:47;24.00;99.90
1417;DHT22;703;51.162;13.574;2023-05-20T12:22:13;23.10;99.90
1417;DHT22;703;51.162;13.574;2023-05-20T12:24:38;23.50;99.90
1417;DHT22;703;51.162;13.574;2023-05-20T12:27:04;23.40;99.90
1417;DHT22;703;51.162;13.574;2023-05-20T12:29:31;23.50;99.90
1417;DHT22;703;51.162;13.574;2023-05-20T12:31:56;23.50;99.90
1417;DHT22;703;51.162;13.574;2023-05-20T12:34:22;23.00;99.90
1417;DHT22;703;51.162;13.574;2023-05-20T12:36:47;23.40;99.90
1417;DHT22;703;51.162;13.574;2023-05-20T12:39:13;22.80;99.90
1417;DHT22;703;51.162;13.574;2023-05-20T12:41:42;23.40;99.90
1417;DHT22;703;51.162;13.574;2023-05-20T12:44:07;24.10;99.90
1417;DHT22;703;51.162;13.574;2023-05-20T12:46:33;24.00;99.90
1417;DHT22;703;51.162;13.574;2023-05-20T12:48:59;23.80;99.90
1417;DHT22;703;51.162;13.574;2023-05-20T12:51:24;24.00;99.90
1417;DHT22;703;51.162;13.574;2023-05-20T12:53:50;23.70;99.90
1417;DHT22;703;51.162;13.574;2023-05-20T12:56:15;23.50;99.90
1417;DHT22;703;51.162;13.574;2023-05-20T12:58:41;23.60;99.90
1417;DHT22;703;51.162;13.574;2023-05-20T13:01:07;23.20;99.90
1417;DHT22;703;51.162;13.574;2023-05-20T13:03:32;23.40;99.90
1417;DHT22;703;51.162;13.574;2023-05-20T13:05:58;23.40;99.90
1417;DHT22;703;51.162;13.574;2023-05-20T13:08:23;22.80;99.90
1417;DHT22;703;51.162;13.574;2023-05-20T13:10:52;22.50;99.90
1417;DHT22;703;51.162;13.574;2023-05-20T13:13:17;22.50;99.90
1417;DHT22;703;51.162;13.574;2023-05-20T13:15:49;22.50;99.90
1417;DHT22;703;51.162;13.574;2023-05-20T13:18:14;22.70;99.90
1417;DHT22;703;51.162;13.574;2023-05-20T13:20:43;22.60;99.90
1417;DHT22;703;51.162;13.574;2023-05-20T13:23:09;23.30;99.90
1417;DHT22;703;51.162;13.574;2023-05-20T13:25:34;24.00;99.90
1417;DHT22;703;51.162;13.574;2023-05-20T13:28:03;23.40;99.90
1417;DHT22;703;51.162;13.574;2023-05-20T13:30:29;23.20;99.90
1417;DHT22;703;51.162;13.574;2023-05-20T13:32:54;23.40;99.90
1417;DHT22;703;51.162;13.574;2023-05-20T13:35:21;23.90;99.90
1417;DHT22;703;51.162;13.574;2023-05-20T13:37:46;24.30;99.90
1417;DHT22;703;51.162;13.574;2023-05-20T13:40:12;24.00;99.90
1417;DHT22;703;51.162;13.574;2023-05-20T13:42:38;23.80;99.90
1417;DHT22;703;51.162;13.574;2023-05-20T13:45:03;23.10;99.90
1417;DHT22;703;51.162;13.574;2023-05-20T13:47:29;23.40;99.90
1417;DHT22;703;51.162;13.574;2023-05-20T13:49:54;23.60;99.90
1417;DHT22;703;51.162;13.574;2023-05-20T13:52:23;24.00;99.90
1417;DHT22;703;51.162;13.574;2023-05-20T13:54:49;24.20;99.90
1417;DHT22;703;51.162;13.574;2023-05-20T13:57:14;24.40;99.90
1417;DHT22;703;51.162;13.574;2023-05-20T13:59:40;24.10;99.90
1417;DHT22;703;51.162;13.574;2023-05-20T14:02:06;23.50;99.90
1417;DHT22;703;51.162;13.574;2023-05-20T14:04:31;23.00;99.90
1417;DHT22;703;51.162;13.574;2023-05-20T14:07:02;23.40;99.90
1417;DHT22;703;51.162;13.574;2023-05-20T14:09:28;23.20;99.90
1417;DHT22;703;51.162;13.574;2023-05-20T14:11:54;22.90;99.90
1417;DHT22;703;51.162;13.574;2023-05-20T14:14:19;23.50;99.90
1417;DHT22;703;51.162;13.574;2023-05-20T14:16:45;23.30;99.90
1417;DHT22;703;51.162;13.574;2023-05-20T14:19:11;22.80;99.90
1417;DHT22;703;51.162;13.574;2023-05-20T14:21:36;22.50;99.90
1417;DHT22;703;51.162;13.574;2023-05-20T14:24:02;22.60;99.90
1417;DHT22;703;51.162;13.574;2023-05-20T14:26:27;22.70;99.90
1417;DHT22;703;51.162;13.574;2023-05-20T14:28:53;22.80;99.90
1417;DHT22;703;51.162;13.574;2023-05-20T14:31:18;23.40;99.90
1417;DHT22;703;51.162;13.574;2023-05-20T14:33:44;23.40;99.90
1417;DHT22;703;51.162;13.574;2023-05-20T14:36:09;22.60;99.90
1417;DHT22;703;51.162;13.574;2023-05-20T14:38:35;22.70;99.90
1417;DHT22;703;51.162;13.574;2023-05-20T14:41:01;22.50;99.90
1417;DHT22;703;51.162;13.574;2023-05-20T14:43:26;22.00;99.90
1417;DHT22;703;51.162;13.574;2023-05-20T14:45:53;22.00;99.90
1417;DHT22;703;51.162;13.574;2023-05-20T14:48:18;22.00;99.90
1417;DHT22;703;51.162;13.574;2023-05-20T14:50:44;22.00;99.90
1417;DHT22;703;51.162;13.574;2023-05-20T14:53:09;21.90;99.90
1417;DHT22;703;51.162;13.574;2023-05-20T14:55:35;22.00;99.90
1417;DHT22;703;51.162;13.574;2023-05-20T14:58:00;22.10;99.90
1417;DHT22;703;51.162;13.574;2023-05-20T15:00:26;22.00;99.90
1417;DHT22;703;51.162;13.574;2023-05-20T15:02:51;22.20;99.90
1417;DHT22;703;51.162;13.574;2023-05-20T15:05:17;22.40;99.90
1417;DHT22;703;51.162;13.574;2023-05-20T15:07:42;22.50;99.90
1417;DHT22;703;51.162;13.574;2023-05-20T15:10:08;23.80;99.90
1417;DHT22;703;51.162;13.574;2023-05-20T15:12:33;22.60;99.90
1417;DHT22;703;51.162;13.574;2023-05-20T15:14:59;22.20;99.90
1417;DHT22;703;51.162;13.574;2023-05-20T15:17:25;22.00;99.90
1417;DHT22;703;51.162;13.574;2023-05-20T15:19:50;21.90;99.90
1417;DHT22;703;51.162;13.574;2023-05-20T15:22:16;21.80;99.90
1417;DHT22;703;51.162;13.574;2023-05-20T15:24:41;21.90;99.90
1417;DHT22;703;51.162;13.574;2023-05-20T15:27:07;21.80;99.90
1417;DHT22;703;51.162;13.574;2023-05-20T15:29:32;21.90;99.90
1417;DHT22;703;51.162;13.574;2023-05-20T15:31:58;22.00;99.90
1417;DHT22;703;51.162;13.574;2023-05-20T15:34:23;22.20;99.90
1417;DHT22;703;51.162;13.574;2023-05-20T15:36:49;22.10;99.90
1417;DHT22;703;51.162;13.574;2023-05-20T15:39:14;21.60;99.90
1417;DHT22;703;51.162;13.574;2023-05-20T15:41:40;21.70;99.90
1417;DHT22;703;51.162;13.574;2023-05-20T15:44:07;21.60;99.90
1417;DHT22;703;51.162;13.574;2023-05-20T15:46:32;21.80;99.90
1417;DHT22;703;51.162;13.574;2023-05-20T15:48:58;22.00;99.90
1417;DHT22;703;51.162;13.574;2023-05-20T15:51:23;21.90;99.90
1417;DHT22;703;51.162;13.574;2023-05-20T15:53:48;22.00;99.90
1417;DHT22;703;51.162;13.574;2023-05-20T15:56:14;22.10;99.90
1417;DHT22;703;51.162;13.574;2023-05-20T15:58:40;21.90;99.90
1417;DHT22;703;51.162;13.574;2023-05-20T16:01:06;22.20;99.90
1417;DHT22;703;51.162;13.574;2023-05-20T16:03:32;22.20;99.90
1417;DHT22;703;51.162;13.574;2023-05-20T16:05:57;21.90;99.90